sensor_id;sensor_type;location;lat;lon;timestamp;P1;durP1;ratioP1;P2;durP2;ratioP2
68523;SDS011;55524;51.380;13.372;2024-02-15T00:01:19;4.72;;;2.70;;
68523;SDS011;55524;51.380;13.372;2024-02-15T00:03:45;3.70;;;3.03;;
68523;SDS011;55524;51.380;13.372;2024-02-15T00:06:24;3.33;;;2.88;;
68523;SDS011;55524;51.380;13.372;2024-02-15T00:08:59;4.40;;;2.50;;
68523;SDS011;55524;51.380;13.372;2024-02-15T00:11:35;4.05;;;2.75;;
68523;SDS011;55524;51.380;13.372;2024-02-15T00:14:03;4.00;;;2.83;;
68523;SDS011;55524;51.380;13.372;2024-02-15T00:16:29;2.50;;;2.30;;
68523;SDS011;55524;51.380;13.372;2024-02-15T00:18:56;3.05;;;2.13;;
68523;SDS011;55524;51.380;13.372;2024-02-15T00:21:43;3.50;;;2.30;;
68523;SDS011;55524;51.380;13.372;2024-02-15T00:24:09;2.60;;;2.40;;
68523;SDS011;55524;51.380;13.372;2024-02-15T00:26:39;2.50;;;2.17;;
68523;SDS011;55524;51.380;13.372;2024-02-15T00:29:15;1.90;;;1.80;;
68523;SDS011;55524;51.380;13.372;2024-02-15T00:32:22;1.90;;;1.80;;
68523;SDS011;55524;51.380;13.372;2024-02-15T00:34:48;2.03;;;1.92;;
68523;SDS011;55524;51.380;13.372;2024-02-15T00:37:14;2.38;;;1.88;;
68523;SDS011;55524;51.380;13.372;2024-02-15T00:39:41;2.00;;;1.90;;
68523;SDS011;55524;51.380;13.372;2024-02-15T00:42:46;2.45;;;1.60;;
68523;SDS011;55524;51.380;13.372;2024-02-15T00:45:12;1.95;;;1.80;;
68523;SDS011;55524;51.380;13.372;2024-02-15T00:47:39;1.70;;;1.60;;
68523;SDS011;55524;51.380;13.372;2024-02-15T00:50:07;3.22;;;1.80;;
68523;SDS011;55524;51.380;13.372;2024-02-15T00:52:34;2.00;;;1.77;;
68523;SDS011;55524;51.380;13.372;2024-02-15T00:55:01;1.73;;;1.63;;
68523;SDS011;55524;51.380;13.372;2024-02-15T00:57:39;1.90;;;1.80;;
68523;SDS011;55524;51.380;13.372;2024-02-15T01:00:06;4.07;;;1.90;;
68523;SDS011;55524;51.380;13.372;2024-02-15T01:02:53;2.00;;;1.77;;
68523;SDS011;55524;51.380;13.372;2024-02-15T01:05:39;2.22;;;2.03;;
68523;SDS011;55524;51.380;13.372;2024-02-15T01:08:06;2.08;;;1.90;;
68523;SDS011;55524;51.380;13.372;2024-02-15T01:10:34;2.42;;;2.20;;
68523;SDS011;55524;51.380;13.372;2024-02-15T01:13:01;2.10;;;1.92;;
68523;SDS011;55524;51.380;13.372;2024-02-15T01:15:37;2.65;;;2.08;;
68523;SDS011;55524;51.380;13.372;2024-02-15T01:18:06;2.22;;;2.13;;
68523;SDS011;55524;51.380;13.372;2024-02-15T01:20:32;2.50;;;1.85;;
68523;SDS011;55524;51.380;13.372;2024-02-15T01:22:58;1.70;;;1.60;;
68523;SDS011;55524;51.380;13.372;2024-02-15T01:25:29;2.05;;;1.80;;
68523;SDS011;55524;51.380;13.372;2024-02-15T01:27:56;1.80;;;1.70;;
68523;SDS011;55524;51.380;13.372;2024-02-15T01:30:22;1.92;;;1.83;;
68523;SDS011;55524;51.380;13.372;2024-02-15T01:32:49;1.80;;;1.70;;
68523;SDS011;55524;51.380;13.372;2024-02-15T01:35:15;2.03;;;1.92;;
68523;SDS011;55524;51.380;13.372;2024-02-15T01:38:08;1.85;;;1.50;;
68523;SDS011;55524;51.380;13.372;2024-02-15T01:41:15;2.33;;;2.10;;
68523;SDS011;55524;51.380;13.372;2024-02-15T01:43:44;1.77;;;1.67;;
68523;SDS011;55524;51.380;13.372;2024-02-15T01:46:31;2.30;;;1.95;;
68523;SDS011;55524;51.380;13.372;2024-02-15T01:49:25;2.00;;;1.60;;
68523;SDS011;55524;51.380;13.372;2024-02-15T01:52:14;1.80;;;1.70;;
68523;SDS011;55524;51.380;13.372;2024-02-15T01:55:02;2.17;;;1.75;;
68523;SDS011;55524;51.380;13.372;2024-02-15T01:57:49;1.70;;;1.60;;
68523;SDS011;55524;51.380;13.372;2024-02-15T02:00:16;1.98;;;1.40;;
68523;SDS011;55524;51.380;13.372;2024-02-15T02:03:05;1.83;;;1.60;;
68523;SDS011;55524;51.380;13.372;2024-02-15T02:05:53;2.38;;;1.40;;
68523;SDS011;55524;51.380;13.372;2024-02-15T02:08:31;2.28;;;1.80;;
68523;SDS011;55524;51.380;13.372;2024-02-15T02:11:00;2.42;;;1.88;;
68523;SDS011;55524;51.380;13.372;2024-02-15T02:13:36;1.90;;;1.80;;
68523;SDS011;55524;51.380;13.372;2024-02-15T02:19:35;1.98;;;1.88;;
68523;SDS011;55524;51.380;13.372;2024-02-15T02:22:11;1.85;;;1.75;;
68523;SDS011;55524;51.380;13.372;2024-02-15T02:27:53;2.25;;;2.05;;
68523;SDS011;55524;51.380;13.372;2024-02-15T02:30:41;3.40;;;1.70;;
68523;SDS011;55524;51.380;13.372;2024-02-15T02:33:13;2.45;;;1.80;;
68523;SDS011;55524;51.380;13.372;2024-02-15T02:35:53;2.00;;;1.90;;
68523;SDS011;55524;51.380;13.372;2024-02-15T02:38:22;2.03;;;1.42;;
68523;SDS011;55524;51.380;13.372;2024-02-15T02:41:16;1.80;;;1.70;;
68523;SDS011;55524;51.380;13.372;2024-02-15T02:43:44;1.77;;;1.65;;
68523;SDS011;55524;51.380;13.372;2024-02-15T02:48:52;1.67;;;1.55;;
68523;SDS011;55524;51.380;13.372;2024-02-15T02:51:27;1.80;;;1.70;;
68523;SDS011;55524;51.380;13.372;2024-02-15T02:53:54;1.83;;;1.73;;
68523;SDS011;55524;51.380;13.372;2024-02-15T02:56:49;1.85;;;1.75;;
68523;SDS011;55524;51.380;13.372;2024-02-15T02:59:16;1.77;;;1.67;;
68523;SDS011;55524;51.380;13.372;2024-02-15T03:02:05;2.08;;;1.98;;
68523;SDS011;55524;51.380;13.372;2024-02-15T03:04:33;1.73;;;1.63;;
68523;SDS011;55524;51.380;13.372;2024-02-15T03:07:40;2.00;;;1.90;;
68523;SDS011;55524;51.380;13.372;2024-02-15T03:10:26;1.98;;;1.80;;
68523;SDS011;55524;51.380;13.372;2024-02-15T03:13:33;2.08;;;1.95;;
68523;SDS011;55524;51.380;13.372;2024-02-15T03:16:00;1.90;;;1.80;;
68523;SDS011;55524;51.380;13.372;2024-02-15T03:18:47;2.22;;;2.10;;
68523;SDS011;55524;51.380;13.372;2024-02-15T03:21:36;1.83;;;1.73;;
68523;SDS011;55524;51.380;13.372;2024-02-15T03:24:03;2.17;;;2.05;;
68523;SDS011;55524;51.380;13.372;2024-02-15T03:26:38;3.17;;;1.85;;
68523;SDS011;55524;51.380;13.372;2024-02-15T03:29:25;2.30;;;2.08;;
68523;SDS011;55524;51.380;13.372;2024-02-15T03:31:51;1.90;;;1.80;;
68523;SDS011;55524;51.380;13.372;2024-02-15T03:34:18;2.83;;;1.90;;
68523;SDS011;55524;51.380;13.372;2024-02-15T03:37:12;1.77;;;1.67;;
68523;SDS011;55524;51.380;13.372;2024-02-15T03:39:50;1.80;;;1.70;;
68523;SDS011;55524;51.380;13.372;2024-02-15T03:42:16;1.95;;;1.75;;
68523;SDS011;55524;51.380;13.372;2024-02-15T03:44:42;2.17;;;2.08;;
68523;SDS011;55524;51.380;13.372;2024-02-15T03:47:09;2.00;;;1.90;;
68523;SDS011;55524;51.380;13.372;2024-02-15T03:49:38;1.90;;;1.80;;
68523;SDS011;55524;51.380;13.372;2024-02-15T03:52:21;1.98;;;1.83;;
68523;SDS011;55524;51.380;13.372;2024-02-15T03:54:47;1.90;;;1.80;;
68523;SDS011;55524;51.380;13.372;2024-02-15T03:57:34;1.90;;;1.80;;
68523;SDS011;55524;51.380;13.372;2024-02-15T04:00:25;1.80;;;1.70;;
68523;SDS011;55524;51.380;13.372;2024-02-15T04:03:32;1.83;;;1.73;;
68523;SDS011;55524;51.380;13.372;2024-02-15T04:05:59;2.80;;;1.92;;
68523;SDS011;55524;51.380;13.372;2024-02-15T04:08:26;1.98;;;1.88;;
68523;SDS011;55524;51.380;13.372;2024-02-15T04:10:52;2.05;;;1.95;;
68523;SDS011;55524;51.380;13.372;2024-02-15T04:13:18;2.00;;;1.90;;
68523;SDS011;55524;51.380;13.372;2024-02-15T04:16:05;3.10;;;2.33;;
68523;SDS011;55524;51.380;13.372;2024-02-15T04:18:50;2.10;;;1.90;;
68523;SDS011;55524;51.380;13.372;2024-02-15T04:21:16;2.10;;;1.98;;
68523;SDS011;55524;51.380;13.372;2024-02-15T04:23:45;1.95;;;1.85;;
68523;SDS011;55524;51.380;13.372;2024-02-15T04:26:11;2.22;;;2.10;;
68523;SDS011;55524;51.380;13.372;2024-02-15T04:28:39;3.50;;;1.98;;
68523;SDS011;55524;51.380;13.372;2024-02-15T04:31:38;1.85;;;1.75;;
68523;SDS011;55524;51.380;13.372;2024-02-15T04:34:04;1.80;;;1.70;;
68523;SDS011;55524;51.380;13.372;2024-02-15T04:36:31;2.45;;;1.50;;
68523;SDS011;55524;51.380;13.372;2024-02-15T04:39:13;1.65;;;1.38;;
68523;SDS011;55524;51.380;13.372;2024-02-15T04:42:05;1.80;;;1.70;;
68523;SDS011;55524;51.380;13.372;2024-02-15T04:44:58;1.67;;;1.45;;
68523;SDS011;55524;51.380;13.372;2024-02-15T04:47:24;1.90;;;1.80;;
68523;SDS011;55524;51.380;13.372;2024-02-15T04:50:10;1.90;;;1.80;;
68523;SDS011;55524;51.380;13.372;2024-02-15T04:52:37;3.28;;;2.20;;
68523;SDS011;55524;51.380;13.372;2024-02-15T04:57:45;1.70;;;1.60;;
68523;SDS011;55524;51.380;13.372;2024-02-15T05:00:15;2.13;;;1.92;;
68523;SDS011;55524;51.380;13.372;2024-02-15T05:03:05;2.08;;;1.98;;
68523;SDS011;55524;51.380;13.372;2024-02-15T05:06:00;4.45;;;1.88;;
68523;SDS011;55524;51.380;13.372;2024-02-15T05:08:46;3.47;;;1.75;;
68523;SDS011;55524;51.380;13.372;2024-02-15T05:11:13;1.70;;;1.60;;
68523;SDS011;55524;51.380;13.372;2024-02-15T05:13:46;1.77;;;1.67;;
68523;SDS011;55524;51.380;13.372;2024-02-15T05:16:32;2.08;;;1.60;;
68523;SDS011;55524;51.380;13.372;2024-02-15T05:18:59;4.20;;;2.10;;
68523;SDS011;55524;51.380;13.372;2024-02-15T05:21:25;1.73;;;1.63;;
68523;SDS011;55524;51.380;13.372;2024-02-15T05:24:17;1.80;;;1.70;;
68523;SDS011;55524;51.380;13.372;2024-02-15T05:26:45;1.60;;;1.50;;
68523;SDS011;55524;51.380;13.372;2024-02-15T05:29:15;5.05;;;2.08;;
68523;SDS011;55524;51.380;13.372;2024-02-15T05:32:04;3.40;;;1.70;;
68523;SDS011;55524;51.380;13.372;2024-02-15T05:34:42;2.00;;;1.85;;
68523;SDS011;55524;51.380;13.372;2024-02-15T05:37:09;2.38;;;2.00;;
68523;SDS011;55524;51.380;13.372;2024-02-15T05:39:59;2.72;;;2.47;;
68523;SDS011;55524;51.380;13.372;2024-02-15T05:42:41;2.25;;;2.10;;
68523;SDS011;55524;51.380;13.372;2024-02-15T05:47:50;2.65;;;2.33;;
68523;SDS011;55524;51.380;13.372;2024-02-15T05:50:37;2.40;;;2.20;;
68523;SDS011;55524;51.380;13.372;2024-02-15T05:53:03;2.53;;;2.33;;
68523;SDS011;55524;51.380;13.372;2024-02-15T05:55:44;3.58;;;2.20;;
68523;SDS011;55524;51.380;13.372;2024-02-15T05:58:34;2.28;;;2.13;;
68523;SDS011;55524;51.380;13.372;2024-02-15T06:01:27;2.10;;;2.00;;
68523;SDS011;55524;51.380;13.372;2024-02-15T06:04:20;2.00;;;1.90;;
68523;SDS011;55524;51.380;13.372;2024-02-15T06:06:51;4.70;;;1.88;;
68523;SDS011;55524;51.380;13.372;2024-02-15T06:09:21;2.65;;;1.85;;
68523;SDS011;55524;51.380;13.372;2024-02-15T06:11:55;1.77;;;1.67;;
68523;SDS011;55524;51.380;13.372;2024-02-15T06:14:22;1.67;;;1.58;;
68523;SDS011;55524;51.380;13.372;2024-02-15T06:17:09;3.67;;;1.90;;
68523;SDS011;55524;51.380;13.372;2024-02-15T06:19:35;1.90;;;1.80;;
68523;SDS011;55524;51.380;13.372;2024-02-15T06:22:31;2.28;;;2.08;;
68523;SDS011;55524;51.380;13.372;2024-02-15T06:24:57;1.80;;;1.70;;
68523;SDS011;55524;51.380;13.372;2024-02-15T06:27:33;2.53;;;1.88;;
68523;SDS011;55524;51.380;13.372;2024-02-15T06:30:01;1.80;;;1.70;;
68523;SDS011;55524;51.380;13.372;2024-02-15T06:32:47;1.67;;;1.58;;
68523;SDS011;55524;51.380;13.372;2024-02-15T06:35:32;1.60;;;1.50;;
68523;SDS011;55524;51.380;13.372;2024-02-15T06:38:17;1.58;;;1.48;;
68523;SDS011;55524;51.380;13.372;2024-02-15T06:41:11;1.60;;;1.50;;
68523;SDS011;55524;51.380;13.372;2024-02-15T06:43:38;1.60;;;1.50;;
68523;SDS011;55524;51.380;13.372;2024-02-15T06:46:14;1.58;;;1.48;;
68523;SDS011;55524;51.380;13.372;2024-02-15T06:49:11;1.48;;;1.38;;
68523;SDS011;55524;51.380;13.372;2024-02-15T06:51:37;1.50;;;1.40;;
68523;SDS011;55524;51.380;13.372;2024-02-15T06:54:19;1.30;;;1.20;;
68523;SDS011;55524;51.380;13.372;2024-02-15T06:56:45;1.73;;;1.30;;
68523;SDS011;55524;51.380;13.372;2024-02-15T06:59:32;1.40;;;1.30;;
68523;SDS011;55524;51.380;13.372;2024-02-15T07:02:12;4.57;;;1.20;;
68523;SDS011;55524;51.380;13.372;2024-02-15T07:04:41;1.40;;;1.30;;
68523;SDS011;55524;51.380;13.372;2024-02-15T07:07:31;4.38;;;1.27;;
68523;SDS011;55524;51.380;13.372;2024-02-15T07:10:08;1.30;;;1.27;;
68523;SDS011;55524;51.380;13.372;2024-02-15T07:12:35;2.13;;;1.40;;
68523;SDS011;55524;51.380;13.372;2024-02-15T07:15:03;1.73;;;1.63;;
68523;SDS011;55524;51.380;13.372;2024-02-15T07:17:52;1.33;;;1.23;;
68523;SDS011;55524;51.380;13.372;2024-02-15T07:20:27;2.58;;;1.40;;
68523;SDS011;55524;51.380;13.372;2024-02-15T07:22:53;1.58;;;1.23;;
68523;SDS011;55524;51.380;13.372;2024-02-15T07:25:20;1.50;;;1.40;;
68523;SDS011;55524;51.380;13.372;2024-02-15T07:27:49;1.50;;;1.40;;
68523;SDS011;55524;51.380;13.372;2024-02-15T07:30:17;3.20;;;1.40;;
68523;SDS011;55524;51.380;13.372;2024-02-15T07:32:52;1.95;;;1.10;;
68523;SDS011;55524;51.380;13.372;2024-02-15T07:35:28;2.35;;;1.35;;
68523;SDS011;55524;51.380;13.372;2024-02-15T07:38:00;1.15;;;1.15;;
68523;SDS011;55524;51.380;13.372;2024-02-15T07:40:26;1.23;;;1.20;;
68523;SDS011;55524;51.380;13.372;2024-02-15T07:43:16;1.35;;;1.30;;
68523;SDS011;55524;51.380;13.372;2024-02-15T07:45:45;2.45;;;1.20;;
68523;SDS011;55524;51.380;13.372;2024-02-15T07:48:14;1.42;;;1.30;;
68523;SDS011;55524;51.380;13.372;2024-02-15T07:50:41;3.80;;;1.40;;
68523;SDS011;55524;51.380;13.372;2024-02-15T07:53:10;1.65;;;1.50;;
68523;SDS011;55524;51.380;13.372;2024-02-15T07:55:45;1.98;;;1.50;;
68523;SDS011;55524;51.380;13.372;2024-02-15T07:58:11;1.80;;;1.70;;
68523;SDS011;55524;51.380;13.372;2024-02-15T08:00:38;5.60;;;1.75;;
68523;SDS011;55524;51.380;13.372;2024-02-15T08:03:05;11.82;;;2.17;;
68523;SDS011;55524;51.380;13.372;2024-02-15T08:05:32;3.70;;;1.42;;
68523;SDS011;55524;51.380;13.372;2024-02-15T08:08:02;2.28;;;1.25;;
68523;SDS011;55524;51.380;13.372;2024-02-15T08:10:56;8.52;;;1.60;;
68523;SDS011;55524;51.380;13.372;2024-02-15T08:13:22;2.35;;;1.10;;
68523;SDS011;55524;51.380;13.372;2024-02-15T08:15:56;4.72;;;1.50;;
68523;SDS011;55524;51.380;13.372;2024-02-15T08:18:41;4.95;;;1.60;;
68523;SDS011;55524;51.380;13.372;2024-02-15T08:21:17;3.53;;;1.23;;
68523;SDS011;55524;51.380;13.372;2024-02-15T08:24:06;13.25;;;2.10;;
68523;SDS011;55524;51.380;13.372;2024-02-15T08:26:37;1.20;;;1.10;;
68523;SDS011;55524;51.380;13.372;2024-02-15T08:29:12;1.60;;;1.15;;
68523;SDS011;55524;51.380;13.372;2024-02-15T08:31:40;2.70;;;1.40;;
68523;SDS011;55524;51.380;13.372;2024-02-15T08:34:06;2.95;;;1.30;;
68523;SDS011;55524;51.380;13.372;2024-02-15T08:36:36;2.38;;;1.27;;
68523;SDS011;55524;51.380;13.372;2024-02-15T08:43:04;6.65;;;1.67;;
68523;SDS011;55524;51.380;13.372;2024-02-15T08:45:31;2.50;;;1.60;;
68523;SDS011;55524;51.380;13.372;2024-02-15T08:47:57;1.40;;;1.30;;
68523;SDS011;55524;51.380;13.372;2024-02-15T08:50:24;1.50;;;1.40;;
68523;SDS011;55524;51.380;13.372;2024-02-15T08:53:11;1.92;;;1.70;;
68523;SDS011;55524;51.380;13.372;2024-02-15T08:58:19;1.70;;;1.40;;
68523;SDS011;55524;51.380;13.372;2024-02-15T09:00:49;1.80;;;1.67;;
68523;SDS011;55524;51.380;13.372;2024-02-15T09:03:16;1.60;;;1.42;;
68523;SDS011;55524;51.380;13.372;2024-02-15T09:05:43;2.38;;;1.48;;
68523;SDS011;55524;51.380;13.372;2024-02-15T09:08:32;1.88;;;1.77;;
68523;SDS011;55524;51.380;13.372;2024-02-15T09:10:59;1.80;;;1.70;;
68523;SDS011;55524;51.380;13.372;2024-02-15T09:13:27;1.70;;;1.60;;
68523;SDS011;55524;51.380;13.372;2024-02-15T09:15:54;2.03;;;1.70;;
68523;SDS011;55524;51.380;13.372;2024-02-15T09:18:41;1.60;;;1.50;;
68523;SDS011;55524;51.380;13.372;2024-02-15T09:21:27;3.05;;;1.65;;
68523;SDS011;55524;51.380;13.372;2024-02-15T09:24:04;1.90;;;1.80;;
68523;SDS011;55524;51.380;13.372;2024-02-15T09:26:34;3.45;;;2.30;;
68523;SDS011;55524;51.380;13.372;2024-02-15T09:29:01;2.08;;;1.83;;
68523;SDS011;55524;51.380;13.372;2024-02-15T09:31:27;7.55;;;2.10;;
68523;SDS011;55524;51.380;13.372;2024-02-15T09:34:00;5.65;;;1.98;;
68523;SDS011;55524;51.380;13.372;2024-02-15T09:36:38;2.80;;;2.45;;
68523;SDS011;55524;51.380;13.372;2024-02-15T09:39:25;3.38;;;1.88;;
68523;SDS011;55524;51.380;13.372;2024-02-15T09:41:53;3.95;;;2.53;;
68523;SDS011;55524;51.380;13.372;2024-02-15T09:44:23;2.70;;;2.38;;
68523;SDS011;55524;51.380;13.372;2024-02-15T09:50:42;6.70;;;2.75;;
68523;SDS011;55524;51.380;13.372;2024-02-15T09:53:11;3.15;;;2.50;;
68523;SDS011;55524;51.380;13.372;2024-02-15T09:55:40;2.90;;;2.38;;
68523;SDS011;55524;51.380;13.372;2024-02-15T09:58:12;3.85;;;2.67;;
68523;SDS011;55524;51.380;13.372;2024-02-15T10:00:40;2.60;;;2.40;;
68523;SDS011;55524;51.380;13.372;2024-02-15T10:03:12;6.47;;;2.22;;
68523;SDS011;55524;51.380;13.372;2024-02-15T10:05:44;2.28;;;2.10;;
68523;SDS011;55524;51.380;13.372;2024-02-15T10:08:16;4.90;;;2.28;;
68523;SDS011;55524;51.380;13.372;2024-02-15T10:11:07;7.47;;;2.05;;
68523;SDS011;55524;51.380;13.372;2024-02-15T10:13:37;15.65;;;2.95;;
68523;SDS011;55524;51.380;13.372;2024-02-15T10:16:23;2.28;;;2.08;;
68523;SDS011;55524;51.380;13.372;2024-02-15T10:18:51;5.18;;;2.30;;
68523;SDS011;55524;51.380;13.372;2024-02-15T10:21:33;5.20;;;2.20;;
68523;SDS011;55524;51.380;13.372;2024-02-15T10:24:04;2.38;;;2.13;;
68523;SDS011;55524;51.380;13.372;2024-02-15T10:26:32;4.65;;;2.20;;
68523;SDS011;55524;51.380;13.372;2024-02-15T10:29:10;4.63;;;2.40;;
68523;SDS011;55524;51.380;13.372;2024-02-15T10:32:00;3.80;;;2.08;;
68523;SDS011;55524;51.380;13.372;2024-02-15T10:34:49;5.88;;;2.47;;
68523;SDS011;55524;51.380;13.372;2024-02-15T10:37:18;6.50;;;1.88;;
68523;SDS011;55524;51.380;13.372;2024-02-15T10:39:46;2.00;;;1.90;;
68523;SDS011;55524;51.380;13.372;2024-02-15T10:42:48;5.97;;;2.22;;
68523;SDS011;55524;51.380;13.372;2024-02-15T10:45:17;3.97;;;2.10;;
68523;SDS011;55524;51.380;13.372;2024-02-15T10:47:44;1.90;;;1.80;;
68523;SDS011;55524;51.380;13.372;2024-02-15T10:50:30;4.97;;;1.88;;
68523;SDS011;55524;51.380;13.372;2024-02-15T10:53:08;4.30;;;2.00;;
68523;SDS011;55524;51.380;13.372;2024-02-15T10:59:22;2.75;;;1.80;;
68523;SDS011;55524;51.380;13.372;2024-02-15T11:05:38;3.38;;;1.90;;
68523;SDS011;55524;51.380;13.372;2024-02-15T11:08:11;2.80;;;1.90;;
68523;SDS011;55524;51.380;13.372;2024-02-15T11:11:03;6.68;;;2.38;;
68523;SDS011;55524;51.380;13.372;2024-02-15T11:13:30;5.28;;;1.80;;
68523;SDS011;55524;51.380;13.372;2024-02-15T11:22:14;5.57;;;1.95;;
68523;SDS011;55524;51.380;13.372;2024-02-15T11:27:26;2.58;;;2.30;;
68523;SDS011;55524;51.380;13.372;2024-02-15T11:29:54;3.58;;;2.20;;
68523;SDS011;55524;51.380;13.372;2024-02-15T11:35:30;5.65;;;2.15;;
68523;SDS011;55524;51.380;13.372;2024-02-15T11:37:57;12.38;;;3.15;;
68523;SDS011;55524;51.380;13.372;2024-02-15T11:46:21;10.40;;;2.83;;
68523;SDS011;55524;51.380;13.372;2024-02-15T11:48:58;2.88;;;2.58;;
68523;SDS011;55524;51.380;13.372;2024-02-15T11:51:25;2.92;;;2.42;;
68523;SDS011;55524;51.380;13.372;2024-02-15T11:54:03;4.88;;;2.35;;
68523;SDS011;55524;51.380;13.372;2024-02-15T11:56:49;2.47;;;2.20;;
68523;SDS011;55524;51.380;13.372;2024-02-15T11:59:29;2.47;;;2.28;;
68523;SDS011;55524;51.380;13.372;2024-02-15T12:02:08;4.10;;;2.28;;
68523;SDS011;55524;51.380;13.372;2024-02-15T12:04:52;2.97;;;2.10;;
68523;SDS011;55524;51.380;13.372;2024-02-15T12:07:37;5.22;;;2.10;;
68523;SDS011;55524;51.380;13.372;2024-02-15T12:10:22;3.00;;;2.17;;
68523;SDS011;55524;51.380;13.372;2024-02-15T12:13:06;5.10;;;1.95;;
68523;SDS011;55524;51.380;13.372;2024-02-15T12:16:15;6.25;;;2.40;;
68523;SDS011;55524;51.380;13.372;2024-02-15T12:18:59;2.92;;;2.20;;
68523;SDS011;55524;51.380;13.372;2024-02-15T12:21:50;2.60;;;2.15;;
68523;SDS011;55524;51.380;13.372;2024-02-15T12:24:34;4.50;;;2.10;;
68523;SDS011;55524;51.380;13.372;2024-02-15T12:27:00;2.15;;;1.92;;
68523;SDS011;55524;51.380;13.372;2024-02-15T12:29:28;3.85;;;2.10;;
68523;SDS011;55524;51.380;13.372;2024-02-15T12:31:55;2.30;;;1.95;;
68523;SDS011;55524;51.380;13.372;2024-02-15T12:34:22;4.53;;;2.17;;
68523;SDS011;55524;51.380;13.372;2024-02-15T12:37:09;12.75;;;2.90;;
68523;SDS011;55524;51.380;13.372;2024-02-15T12:39:35;2.50;;;2.30;;
68523;SDS011;55524;51.380;13.372;2024-02-15T12:42:06;2.35;;;2.15;;
68523;SDS011;55524;51.380;13.372;2024-02-15T12:44:34;2.20;;;2.00;;
68523;SDS011;55524;51.380;13.372;2024-02-15T12:47:45;2.22;;;1.90;;
68523;SDS011;55524;51.380;13.372;2024-02-15T12:54:24;2.60;;;1.90;;
68523;SDS011;55524;51.380;13.372;2024-02-15T12:57:07;2.65;;;2.05;;
68523;SDS011;55524;51.380;13.372;2024-02-15T12:59:36;2.00;;;1.90;;
68523;SDS011;55524;51.380;13.372;2024-02-15T13:02:07;2.92;;;1.80;;
68523;SDS011;55524;51.380;13.372;2024-02-15T13:04:39;2.33;;;2.13;;
68523;SDS011;55524;51.380;13.372;2024-02-15T13:07:06;1.95;;;1.80;;
68523;SDS011;55524;51.380;13.372;2024-02-15T13:09:52;3.53;;;2.08;;
68523;SDS011;55524;51.380;13.372;2024-02-15T13:12:18;2.08;;;1.92;;
68523;SDS011;55524;51.380;13.372;2024-02-15T13:14:45;3.55;;;2.00;;
68523;SDS011;55524;51.380;13.372;2024-02-15T13:17:40;3.05;;;2.00;;
68523;SDS011;55524;51.380;13.372;2024-02-15T13:20:30;3.80;;;2.17;;
68523;SDS011;55524;51.380;13.372;2024-02-15T13:23:16;1.92;;;1.83;;
68523;SDS011;55524;51.380;13.372;2024-02-15T13:25:59;1.83;;;1.70;;
68523;SDS011;55524;51.380;13.372;2024-02-15T13:28:45;1.95;;;1.60;;
68523;SDS011;55524;51.380;13.372;2024-02-15T13:34:53;1.42;;;1.33;;
68523;SDS011;55524;51.380;13.372;2024-02-15T13:37:23;2.08;;;1.50;;
68523;SDS011;55524;51.380;13.372;2024-02-15T13:39:50;1.50;;;1.40;;
68523;SDS011;55524;51.380;13.372;2024-02-15T13:42:20;2.08;;;1.88;;
68523;SDS011;55524;51.380;13.372;2024-02-15T13:45:04;2.33;;;1.50;;
68523;SDS011;55524;51.380;13.372;2024-02-15T13:47:34;1.30;;;1.20;;
68523;SDS011;55524;51.380;13.372;2024-02-15T13:50:01;1.60;;;1.50;;
68523;SDS011;55524;51.380;13.372;2024-02-15T13:52:28;2.95;;;1.20;;
68523;SDS011;55524;51.380;13.372;2024-02-15T13:54:54;17.85;;;2.40;;
68523;SDS011;55524;51.380;13.372;2024-02-15T13:57:20;1.73;;;1.00;;
68523;SDS011;55524;51.380;13.372;2024-02-15T13:59:51;8.02;;;1.48;;
68523;SDS011;55524;51.380;13.372;2024-02-15T14:02:57;6.85;;;1.75;;
68523;SDS011;55524;51.380;13.372;2024-02-15T14:05:46;3.53;;;1.77;;
68523;SDS011;55524;51.380;13.372;2024-02-15T14:08:22;1.63;;;1.52;;
68523;SDS011;55524;51.380;13.372;2024-02-15T14:10:52;3.63;;;1.63;;
68523;SDS011;55524;51.380;13.372;2024-02-15T14:13:58;1.75;;;1.48;;
68523;SDS011;55524;51.380;13.372;2024-02-15T14:20:06;1.77;;;1.67;;
68523;SDS011;55524;51.380;13.372;2024-02-15T14:22:46;1.92;;;1.73;;
68523;SDS011;55524;51.380;13.372;2024-02-15T14:25:38;3.33;;;1.70;;
68523;SDS011;55524;51.380;13.372;2024-02-15T14:28:08;2.70;;;1.40;;
68523;SDS011;55524;51.380;13.372;2024-02-15T14:30:54;2.65;;;1.40;;
68523;SDS011;55524;51.380;13.372;2024-02-15T14:36:25;1.50;;;1.40;;
68523;SDS011;55524;51.380;13.372;2024-02-15T14:39:01;1.45;;;1.20;;
68523;SDS011;55524;51.380;13.372;2024-02-15T14:41:55;3.30;;;1.25;;
68523;SDS011;55524;51.380;13.372;2024-02-15T14:44:30;3.08;;;1.50;;
68523;SDS011;55524;51.380;13.372;2024-02-15T14:46:58;4.30;;;1.65;;
68523;SDS011;55524;51.380;13.372;2024-02-15T14:49:45;1.90;;;1.20;;
68523;SDS011;55524;51.380;13.372;2024-02-15T14:52:17;8.13;;;1.50;;
68523;SDS011;55524;51.380;13.372;2024-02-15T14:55:04;7.47;;;1.60;;
68523;SDS011;55524;51.380;13.372;2024-02-15T14:58:11;2.63;;;1.35;;
68523;SDS011;55524;51.380;13.372;2024-02-15T15:00:44;1.40;;;1.30;;
68523;SDS011;55524;51.380;13.372;2024-02-15T15:03:25;1.77;;;1.58;;
68523;SDS011;55524;51.380;13.372;2024-02-15T15:06:05;1.67;;;1.50;;
68523;SDS011;55524;51.380;13.372;2024-02-15T15:08:54;1.67;;;1.48;;
68523;SDS011;55524;51.380;13.372;2024-02-15T15:11:39;2.00;;;1.50;;
68523;SDS011;55524;51.380;13.372;2024-02-15T15:14:23;8.55;;;2.20;;
68523;SDS011;55524;51.380;13.372;2024-02-15T15:16:50;2.25;;;1.80;;
68523;SDS011;55524;51.380;13.372;2024-02-15T15:19:17;2.80;;;1.70;;
68523;SDS011;55524;51.380;13.372;2024-02-15T15:21:46;2.38;;;1.58;;
68523;SDS011;55524;51.380;13.372;2024-02-15T15:24:19;3.15;;;1.95;;
68523;SDS011;55524;51.380;13.372;2024-02-15T15:26:45;2.45;;;2.25;;
68523;SDS011;55524;51.380;13.372;2024-02-15T15:29:12;2.05;;;1.95;;
68523;SDS011;55524;51.380;13.372;2024-02-15T15:31:39;2.15;;;2.03;;
68523;SDS011;55524;51.380;13.372;2024-02-15T15:34:06;2.88;;;2.05;;
68523;SDS011;55524;51.380;13.372;2024-02-15T15:36:36;3.28;;;2.47;;
68523;SDS011;55524;51.380;13.372;2024-02-15T15:39:02;2.88;;;1.90;;
68523;SDS011;55524;51.380;13.372;2024-02-15T15:41:50;4.57;;;2.10;;
68523;SDS011;55524;51.380;13.372;2024-02-15T15:44:18;2.35;;;1.98;;
68523;SDS011;55524;51.380;13.372;2024-02-15T15:46:52;4.03;;;2.33;;
68523;SDS011;55524;51.380;13.372;2024-02-15T15:49:21;2.38;;;2.17;;
68523;SDS011;55524;51.380;13.372;2024-02-15T15:52:09;2.33;;;2.13;;
68523;SDS011;55524;51.380;13.372;2024-02-15T15:54:39;2.70;;;2.33;;
68523;SDS011;55524;51.380;13.372;2024-02-15T15:57:06;2.40;;;2.20;;
68523;SDS011;55524;51.380;13.372;2024-02-15T15:59:38;2.65;;;2.45;;
68523;SDS011;55524;51.380;13.372;2024-02-15T16:02:08;4.07;;;2.45;;
68523;SDS011;55524;51.380;13.372;2024-02-15T16:04:41;2.78;;;2.53;;
68523;SDS011;55524;51.380;13.372;2024-02-15T16:07:09;5.22;;;2.53;;
68523;SDS011;55524;51.380;13.372;2024-02-15T16:09:35;3.65;;;2.90;;
68523;SDS011;55524;51.380;13.372;2024-02-15T16:12:01;4.15;;;2.85;;
68523;SDS011;55524;51.380;13.372;2024-02-15T16:14:49;3.22;;;2.92;;
68523;SDS011;55524;51.380;13.372;2024-02-15T16:17:19;7.93;;;4.85;;
68523;SDS011;55524;51.380;13.372;2024-02-15T16:19:55;11.73;;;9.05;;
68523;SDS011;55524;51.380;13.372;2024-02-15T16:22:22;11.98;;;8.20;;
68523;SDS011;55524;51.380;13.372;2024-02-15T16:25:10;11.23;;;8.57;;
68523;SDS011;55524;51.380;13.372;2024-02-15T16:27:39;6.70;;;5.65;;
68523;SDS011;55524;51.380;13.372;2024-02-15T16:30:15;4.05;;;3.75;;